createdAt,value
2018-09-26T00:00:44.823Z,8.52
2018-09-26T00:01:44.815Z,8.51
2018-09-26T00:02:44.815Z,8.55
2018-09-26T00:03:44.818Z,8.52
2018-09-26T00:04:44.786Z,8.60
2018-09-26T00:05:44.777Z,8.45
2018-09-26T00:06:44.769Z,8.49
2018-09-26T00:07:44.759Z,8.51
2018-09-26T00:08:44.754Z,8.38
2018-09-26T00:09:44.761Z,8.42
2018-09-26T00:10:44.735Z,8.45
2018-09-26T00:11:44.729Z,8.44
2018-09-26T00:12:44.721Z,8.46
2018-09-26T00:13:44.714Z,8.41
2018-09-26T00:14:44.699Z,8.42
2018-09-26T00:15:44.702Z,8.38
2018-09-26T00:16:44.688Z,8.41
2018-09-26T00:17:44.679Z,8.45
2018-09-26T00:18:44.671Z,8.36
2018-09-26T00:19:44.662Z,8.37
2018-09-26T00:20:44.652Z,8.36
2018-09-26T00:21:44.647Z,8.34
2018-09-26T00:22:44.639Z,8.34
2018-09-26T00:23:44.636Z,8.36
2018-09-26T00:24:44.621Z,8.41
2018-09-26T00:25:44.617Z,8.24
2018-09-26T00:26:44.604Z,8.31
2018-09-26T00:27:44.598Z,8.31
2018-09-26T00:28:44.588Z,8.30
2018-09-26T00:29:44.579Z,8.33
2018-09-26T00:30:44.584Z,8.30
2018-09-26T00:31:44.569Z,8.36
2018-09-26T00:32:44.559Z,8.24
2018-09-26T00:33:44.546Z,8.37
2018-09-26T00:34:44.543Z,8.33
2018-09-26T00:35:44.555Z,8.34
2018-09-26T00:36:44.520Z,8.27
2018-09-26T00:37:44.520Z,8.34
2018-09-26T00:38:44.530Z,8.30
2018-09-26T00:39:44.500Z,8.38
2018-09-26T00:40:44.487Z,8.38
2018-09-26T00:41:44.484Z,8.34
2018-09-26T00:42:44.474Z,8.41
2018-09-26T00:43:44.472Z,8.34
2018-09-26T00:44:44.463Z,8.41
2018-09-26T00:45:44.448Z,8.33
2018-09-26T00:46:44.444Z,8.45
2018-09-26T00:47:44.431Z,8.41
2018-09-26T00:48:44.418Z,8.41
2018-09-26T00:49:44.414Z,8.38
2018-09-26T00:50:44.405Z,8.38
2018-09-26T00:51:44.397Z,8.45
2018-09-26T00:52:44.394Z,8.41
2018-09-26T00:53:44.384Z,8.37
2018-09-26T00:54:44.373Z,8.41
2018-09-26T00:55:44.361Z,8.42
2018-09-26T00:56:44.363Z,8.36
2018-09-26T00:57:44.344Z,8.42
2018-09-26T00:58:44.997Z,8.46
2018-09-26T00:59:44.327Z,8.46
2018-09-26T01:00:44.323Z,8.44
2018-09-26T01:01:44.315Z,8.41
2018-09-26T01:02:44.307Z,8.44
2018-09-26T01:03:44.297Z,8.48
2018-09-26T01:04:44.287Z,8.37
2018-09-26T01:05:44.276Z,8.38
2018-09-26T01:06:44.278Z,8.34
2018-09-26T01:07:44.262Z,8.38
2018-09-26T01:08:44.252Z,8.46
2018-09-26T01:09:44.244Z,8.37
2018-09-26T01:10:44.237Z,8.42
2018-09-26T01:11:44.252Z,8.41
2018-09-26T01:12:44.220Z,8.41
2018-09-26T01:13:44.219Z,8.44
2018-09-26T01:14:44.232Z,8.38
2018-09-26T01:15:44.192Z,8.45
2018-09-26T01:16:44.187Z,8.46
2018-09-26T01:17:44.183Z,8.41
2018-09-26T01:18:44.194Z,8.45
2018-09-26T01:19:44.159Z,8.41
2018-09-26T01:20:44.160Z,8.34
2018-09-26T01:21:44.148Z,8.44
2018-09-26T01:22:44.139Z,8.38
2018-09-26T01:23:44.139Z,8.46
2018-09-26T01:24:44.139Z,8.49
2018-09-26T01:25:44.113Z,8.38
2018-09-26T01:26:44.103Z,8.38
2018-09-26T01:27:44.094Z,8.38
2018-09-26T01:28:44.092Z,8.42
2018-09-26T01:29:44.082Z,8.44
2018-09-26T01:30:44.069Z,8.42
2018-09-26T01:31:44.084Z,8.41
2018-09-26T01:32:44.053Z,8.44
2018-09-26T01:33:44.082Z,8.44
2018-09-26T01:34:44.035Z,8.34
2018-09-26T01:35:44.033Z,8.48
2018-09-26T01:36:44.017Z,8.36
2018-09-26T01:37:44.011Z,8.44
2018-09-26T01:38:44.007Z,8.42
2018-09-26T01:39:43.993Z,8.34
2018-09-26T01:40:43.984Z,8.45
2018-09-26T01:41:44.527Z,8.41
2018-09-26T01:42:43.964Z,8.28
2018-09-26T01:43:43.959Z,8.36
2018-09-26T01:44:43.949Z,8.36
2018-09-26T01:45:43.942Z,8.38
2018-09-26T01:46:43.929Z,8.36
2018-09-26T01:47:43.927Z,8.38
2018-09-26T01:48:43.914Z,8.28
2018-09-26T01:49:43.904Z,8.23
2018-09-26T01:50:43.902Z,8.30
2018-09-26T01:51:43.897Z,8.28
2018-09-26T01:52:43.883Z,8.24
2018-09-26T01:53:43.871Z,8.28
2018-09-26T01:54:43.862Z,8.24
2018-09-26T01:55:43.862Z,8.24
2018-09-26T01:56:43.842Z,8.23
2018-09-26T01:57:43.839Z,8.26
2018-09-26T01:58:43.831Z,8.18
2018-09-26T01:59:43.828Z,8.23
2018-09-26T02:00:43.814Z,8.24
2018-09-26T02:01:43.807Z,8.24
2018-09-26T02:02:43.792Z,8.18
2018-09-26T02:03:43.792Z,8.27
2018-09-26T02:04:44.515Z,8.15
2018-09-26T02:05:43.769Z,8.13
2018-09-26T02:06:43.764Z,8.16
2018-09-26T02:07:43.752Z,8.10
2018-09-26T02:08:43.743Z,8.10
2018-09-26T02:09:43.736Z,8.16
2018-09-26T02:10:43.732Z,8.03
2018-09-26T02:11:43.739Z,8.08
2018-09-26T02:12:43.714Z,8.03
2018-09-26T02:13:43.705Z,8.08
2018-09-26T02:14:43.692Z,8.06
2018-09-26T02:15:43.684Z,8.01
2018-09-26T02:16:43.676Z,8.00
2018-09-26T02:17:43.669Z,7.93
2018-09-26T02:18:43.685Z,7.90
2018-09-26T02:19:43.649Z,7.98
2018-09-26T02:20:43.647Z,7.87
2018-09-26T02:21:43.634Z,7.90
2018-09-26T02:22:43.627Z,7.95
2018-09-26T02:23:43.672Z,7.90
2018-09-26T02:24:43.611Z,7.87
2018-09-26T02:25:43.614Z,7.91
2018-09-26T02:26:43.597Z,7.94
2018-09-26T02:27:43.592Z,7.93
2018-09-26T02:28:43.582Z,7.90
2018-09-26T02:29:43.569Z,7.91
2018-09-26T02:30:43.562Z,7.82
2018-09-26T02:31:43.558Z,7.87
2018-09-26T02:32:43.563Z,7.82
2018-09-26T02:33:43.538Z,7.79
2018-09-26T02:34:43.528Z,7.80
2018-09-26T02:35:43.538Z,7.85
2018-09-26T02:36:43.508Z,7.88
2018-09-26T02:37:43.505Z,7.83
2018-09-26T02:38:43.492Z,7.77
2018-09-26T02:39:43.522Z,7.87
2018-09-26T02:40:44.021Z,7.88
2018-09-26T02:41:43.483Z,7.85
2018-09-26T02:42:43.460Z,7.85
2018-09-26T02:43:43.447Z,7.87
2018-09-26T02:44:43.438Z,7.77
2018-09-26T02:45:43.443Z,7.72
2018-09-26T02:46:43.422Z,7.76
2018-09-26T02:47:43.417Z,7.76
2018-09-26T02:48:43.413Z,7.73
2018-09-26T02:49:43.406Z,7.76
2018-09-26T02:50:43.392Z,7.72
2018-09-26T02:51:43.387Z,7.76
2018-09-26T02:52:43.404Z,7.77
2018-09-26T02:53:43.367Z,7.73
2018-09-26T02:54:43.358Z,7.67
2018-09-26T02:55:43.432Z,7.67
2018-09-26T02:56:43.339Z,7.75
2018-09-26T02:57:43.343Z,7.61
2018-09-26T02:58:43.329Z,7.67
2018-09-26T02:59:43.315Z,7.63
2018-09-26T03:00:43.313Z,7.67
2018-09-26T03:01:43.297Z,7.63
2018-09-26T03:02:43.289Z,7.63
2018-09-26T03:03:43.291Z,7.61
2018-09-26T03:04:43.282Z,7.77
2018-09-26T03:05:43.286Z,7.76
2018-09-26T03:06:43.254Z,7.72
2018-09-26T03:07:43.247Z,7.70
2018-09-26T03:08:43.237Z,7.70
2018-09-26T03:09:43.235Z,7.70
2018-09-26T03:10:43.276Z,7.69
2018-09-26T03:11:43.209Z,7.77
2018-09-26T03:12:43.205Z,7.73
2018-09-26T03:13:43.199Z,7.79
2018-09-26T03:14:43.190Z,7.75
2018-09-26T03:15:43.174Z,7.73
2018-09-26T03:16:43.177Z,7.80
2018-09-26T03:17:43.214Z,7.83
2018-09-26T03:18:43.154Z,7.79
2018-09-26T03:19:43.148Z,7.77
2018-09-26T03:20:43.135Z,7.83
2018-09-26T03:21:43.125Z,7.79
2018-09-26T03:22:43.117Z,7.82
2018-09-26T03:23:43.113Z,7.79
2018-09-26T03:24:43.107Z,7.75
2018-09-26T03:25:43.096Z,7.76
2018-09-26T03:26:43.089Z,7.83
2018-09-26T03:27:43.080Z,7.83
2018-09-26T03:28:43.065Z,7.80
2018-09-26T03:29:43.058Z,7.75
2018-09-26T03:30:43.077Z,7.75
2018-09-26T03:31:43.042Z,7.79
2018-09-26T03:32:43.069Z,7.85
2018-09-26T03:33:43.089Z,7.87
2018-09-26T03:34:43.023Z,7.80
2018-09-26T03:35:43.007Z,7.75
2018-09-26T03:36:43.004Z,7.75
2018-09-26T03:37:42.988Z,7.73
2018-09-26T03:38:42.996Z,7.79
2018-09-26T03:39:42.975Z,7.76
2018-09-26T03:40:42.969Z,7.79
2018-09-26T03:41:42.957Z,7.77
2018-09-26T03:42:42.947Z,7.79
2018-09-26T03:43:42.943Z,7.76
2018-09-26T03:44:42.930Z,7.79
2018-09-26T03:45:43.542Z,7.75
2018-09-26T03:46:42.927Z,7.70
2018-09-26T03:47:42.910Z,7.73
2018-09-26T03:48:57.568Z,7.79
2018-09-26T03:49:42.889Z,7.82
2018-09-26T03:50:42.881Z,7.77
2018-09-26T03:51:42.869Z,7.73
2018-09-26T03:52:42.866Z,7.70
2018-09-26T03:53:42.852Z,7.76
2018-09-26T03:54:42.843Z,7.75
2018-09-26T03:55:42.841Z,7.61
2018-09-26T03:56:42.829Z,7.70
2018-09-26T03:57:42.819Z,7.60
2018-09-26T03:58:42.830Z,7.70
2018-09-26T03:59:42.804Z,7.72
2018-09-26T04:00:42.795Z,7.73
2018-09-26T04:01:42.791Z,7.67
2018-09-26T04:02:42.775Z,7.63
2018-09-26T04:03:42.774Z,7.67
2018-09-26T04:04:42.762Z,7.67
2018-09-26T04:05:42.772Z,7.67
2018-09-26T04:06:42.740Z,7.63
2018-09-26T04:07:42.748Z,7.60
2018-09-26T04:08:42.728Z,7.57
2018-09-26T04:09:42.718Z,7.56
2018-09-26T04:10:43.552Z,7.56
2018-09-26T04:11:42.722Z,7.57
2018-09-26T04:12:42.714Z,7.53
2018-09-26T04:13:42.685Z,7.57
2018-09-26T04:14:42.677Z,7.51
2018-09-26T04:15:42.738Z,7.57
2018-09-26T04:16:42.658Z,7.56
2018-09-26T04:17:42.649Z,7.51
2018-09-26T04:18:42.639Z,7.57
2018-09-26T04:19:43.575Z,7.47
2018-09-26T04:20:42.631Z,7.47
2018-09-26T04:21:42.612Z,7.43
2018-09-26T04:22:42.628Z,7.43
2018-09-26T04:23:42.598Z,7.51
2018-09-26T04:24:42.618Z,7.53
2018-09-26T04:25:42.609Z,7.56
2018-09-26T04:26:42.741Z,7.47
2018-09-26T04:27:42.671Z,7.43
2018-09-26T04:28:42.554Z,7.39
2018-09-26T04:29:42.553Z,7.42
2018-09-26T04:30:42.536Z,7.42
2018-09-26T04:31:42.523Z,7.42
2018-09-26T04:32:42.633Z,7.35
2018-09-26T04:33:42.591Z,7.39
2018-09-26T04:34:42.503Z,7.45
2018-09-26T04:35:42.494Z,7.36
2018-09-26T04:36:42.486Z,7.36
2018-09-26T04:37:42.484Z,7.32
2018-09-26T04:38:42.498Z,7.36
2018-09-26T04:39:42.473Z,7.33
2018-09-26T04:40:42.453Z,7.35
2018-09-26T04:41:42.442Z,7.31
2018-09-26T04:42:42.434Z,7.40
2018-09-26T04:43:42.428Z,7.40
2018-09-26T04:44:42.427Z,7.35
2018-09-26T04:45:42.420Z,7.31
2018-09-26T04:46:42.398Z,7.32
2018-09-26T04:47:42.388Z,7.29
2018-09-26T04:48:42.379Z,7.38
2018-09-26T04:49:42.389Z,7.31
2018-09-26T04:50:42.438Z,7.28
2018-09-26T04:51:42.368Z,7.28
2018-09-26T04:52:42.368Z,7.39
2018-09-26T04:53:42.341Z,7.35
2018-09-26T04:54:42.350Z,7.32
2018-09-26T04:55:42.320Z,7.39
2018-09-26T04:56:42.316Z,7.35
2018-09-26T04:57:42.359Z,7.35
2018-09-26T04:58:42.293Z,7.38
2018-09-26T04:59:42.299Z,7.42
2018-09-26T05:00:42.281Z,7.38
2018-09-26T05:01:42.273Z,7.45
2018-09-26T05:02:42.263Z,7.45
2018-09-26T05:03:42.255Z,7.42
2018-09-26T05:04:42.256Z,7.42
2018-09-26T05:05:42.254Z,7.38
2018-09-26T05:06:42.229Z,7.43
2018-09-26T05:07:42.221Z,7.45
2018-09-26T05:08:42.213Z,7.43
2018-09-26T05:09:42.207Z,7.56
2018-09-26T05:10:42.192Z,7.47
2018-09-26T05:11:42.193Z,7.42
2018-09-26T05:12:42.200Z,7.53
2018-09-26T05:13:42.169Z,7.56
2018-09-26T05:14:42.226Z,7.50
2018-09-26T05:15:42.151Z,7.54
2018-09-26T05:16:42.145Z,7.47
2018-09-26T05:17:42.136Z,7.57
2018-09-26T05:18:42.123Z,7.53
2018-09-26T05:19:42.140Z,7.57
2018-09-26T05:20:42.107Z,7.63
2018-09-26T05:21:42.104Z,7.67
2018-09-26T05:22:42.160Z,7.61
2018-09-26T05:23:42.098Z,7.67
2018-09-26T05:24:42.097Z,7.67
2018-09-26T05:25:42.140Z,7.75
2018-09-26T05:26:42.056Z,7.61
2018-09-26T05:27:42.044Z,7.70
2018-09-26T05:28:42.046Z,7.73
2018-09-26T05:29:42.029Z,7.70
2018-09-26T05:30:42.060Z,7.80
2018-09-26T05:31:42.015Z,7.75
2018-09-26T05:32:42.030Z,7.75
2018-09-26T05:33:41.996Z,7.75
2018-09-26T05:34:41.988Z,7.76
2018-09-26T05:35:41.979Z,7.80
2018-09-26T05:36:41.968Z,7.82
2018-09-26T05:37:41.958Z,7.91
2018-09-26T05:38:41.968Z,7.94
2018-09-26T05:39:41.944Z,7.88
2018-09-26T05:40:41.934Z,7.94
2018-09-26T05:41:42.015Z,7.80
2018-09-26T05:42:41.916Z,7.88
2018-09-26T05:43:41.906Z,7.93
2018-09-26T05:44:41.898Z,7.85
2018-09-26T05:45:41.892Z,8.05
2018-09-26T05:46:41.884Z,7.94
2018-09-26T05:47:41.870Z,8.01
2018-09-26T05:48:41.867Z,8.16
2018-09-26T05:49:41.860Z,8.03
2018-09-26T05:50:41.847Z,8.13
2018-09-26T05:51:41.859Z,8.13
2018-09-26T05:52:41.833Z,8.16
2018-09-26T05:53:41.824Z,8.27
2018-09-26T05:54:41.814Z,8.27
2018-09-26T05:55:41.801Z,8.23
2018-09-26T05:56:41.802Z,8.20
2018-09-26T05:57:41.800Z,8.19
2018-09-26T05:58:41.818Z,8.13
2018-09-26T05:59:42.638Z,8.23
2018-09-26T06:00:41.763Z,8.26
2018-09-26T06:01:41.754Z,8.19
2018-09-26T06:02:41.752Z,8.12
2018-09-26T06:03:42.588Z,8.27
2018-09-26T06:04:41.743Z,8.27
2018-09-26T06:05:41.730Z,8.28
2018-09-26T06:06:41.710Z,8.28
2018-09-26T06:07:41.698Z,8.34
2018-09-26T06:08:41.693Z,8.36
2018-09-26T06:09:41.685Z,8.30
2018-09-26T06:10:41.675Z,8.36
2018-09-26T06:11:41.666Z,8.38
2018-09-26T06:12:41.675Z,8.37
2018-09-26T06:13:41.647Z,8.41
2018-09-26T06:14:41.642Z,8.36
2018-09-26T06:15:41.634Z,8.44
2018-09-26T06:16:41.630Z,8.36
2018-09-26T06:17:41.613Z,8.44
2018-09-26T06:18:41.625Z,8.49
2018-09-26T06:19:41.632Z,8.46
2018-09-26T06:20:41.592Z,8.36
2018-09-26T06:21:41.585Z,8.45
2018-09-26T06:22:41.578Z,8.42
2018-09-26T06:23:41.576Z,8.51
2018-09-26T06:24:41.604Z,8.58
2018-09-26T06:25:41.548Z,8.56
2018-09-26T06:26:41.535Z,8.63
2018-09-26T06:27:41.528Z,8.60
2018-09-26T06:28:41.535Z,8.60
2018-09-26T06:29:41.517Z,8.69
2018-09-26T06:30:41.503Z,8.69
2018-09-26T06:31:41.515Z,8.66
2018-09-26T06:32:41.492Z,8.60
2018-09-26T06:33:41.502Z,8.70
2018-09-26T06:34:41.474Z,8.66
2018-09-26T06:35:41.471Z,8.71
2018-09-26T06:36:41.459Z,8.81
2018-09-26T06:37:41.449Z,8.79
2018-09-26T06:38:41.462Z,8.81
2018-09-26T06:39:41.442Z,8.79
2018-09-26T06:40:41.427Z,8.79
2018-09-26T06:41:41.417Z,8.88
2018-09-26T06:42:41.424Z,8.91
2018-09-26T06:43:41.402Z,8.87
2018-09-26T06:44:41.388Z,8.89
2018-09-26T06:45:41.380Z,8.92
2018-09-26T06:46:41.392Z,8.89
2018-09-26T06:47:41.363Z,8.94
2018-09-26T06:48:41.366Z,8.89
2018-09-26T06:49:41.352Z,9.02
2018-09-26T06:50:41.343Z,9.03
2018-09-26T06:51:41.344Z,9.11
2018-09-26T06:52:41.332Z,9.11
2018-09-26T06:53:41.313Z,9.11
2018-09-26T06:54:41.316Z,9.08
2018-09-26T06:55:41.298Z,9.18
2018-09-26T06:56:41.299Z,9.16
2018-09-26T06:57:41.283Z,9.18
2018-09-26T06:58:41.285Z,9.08
2018-09-26T06:59:41.280Z,9.22
2018-09-26T07:00:41.263Z,9.16
2018-09-26T07:01:41.260Z,9.13
2018-09-26T07:02:41.241Z,9.19
2018-09-26T07:03:41.243Z,9.22
2018-09-26T07:04:42.139Z,9.25
2018-09-26T07:05:41.230Z,9.19
2018-09-26T07:06:41.222Z,9.28
2018-09-26T07:07:41.204Z,9.29
2018-09-26T07:08:41.201Z,9.25
2018-09-26T07:09:41.189Z,9.32
2018-09-26T07:10:41.186Z,9.39
2018-09-26T07:11:41.171Z,9.29
2018-09-26T07:12:41.166Z,9.29
2018-09-26T07:13:41.171Z,9.34
2018-09-26T07:14:41.149Z,9.40
2018-09-26T07:15:41.178Z,9.47
2018-09-26T07:16:41.137Z,9.43
2018-09-26T07:17:41.132Z,9.47
2018-09-26T07:18:41.117Z,9.48
2018-09-26T07:19:41.112Z,9.48
2018-09-26T07:20:41.109Z,9.58
2018-09-26T07:21:41.122Z,9.58
2018-09-26T07:22:41.131Z,9.58
2018-09-26T07:23:41.085Z,9.62
2018-09-26T07:24:41.078Z,9.68
2018-09-26T07:25:41.064Z,9.64
2018-09-26T07:26:41.073Z,9.74
2018-09-26T07:27:41.062Z,9.72
2018-09-26T07:28:41.043Z,9.76
2018-09-26T07:29:41.042Z,9.79
2018-09-26T07:30:41.028Z,9.84
2018-09-26T07:31:41.024Z,9.83
2018-09-26T07:32:41.007Z,9.83
2018-09-26T07:33:41.007Z,9.84
2018-09-26T07:34:41.016Z,9.86
2018-09-26T07:35:40.993Z,10.01
2018-09-26T07:36:40.986Z,9.98
2018-09-26T07:37:40.982Z,10.07
2018-09-26T07:38:40.968Z,10.05
2018-09-26T07:39:40.958Z,10.10
2018-09-26T07:40:40.951Z,10.13
2018-09-26T07:41:40.952Z,10.05
2018-09-26T07:42:40.951Z,10.16
2018-09-26T07:43:40.933Z,10.19
2018-09-26T07:44:40.922Z,10.15
2018-09-26T07:45:40.973Z,10.16
2018-09-26T07:46:42.624Z,10.28
2018-09-26T07:47:40.903Z,10.30
2018-09-26T07:48:40.908Z,10.19
2018-09-26T07:49:40.897Z,10.41
2018-09-26T07:50:40.882Z,10.33
2018-09-26T07:51:40.875Z,10.25
2018-09-26T07:52:41.628Z,10.33
2018-09-26T07:53:40.860Z,10.42
2018-09-26T07:54:40.852Z,10.41
2018-09-26T07:55:40.853Z,10.48
2018-09-26T07:56:41.648Z,10.48
2018-09-26T07:57:40.842Z,10.57
2018-09-26T07:58:41.632Z,10.60
2018-09-26T07:59:40.828Z,10.54
2018-09-26T08:00:40.814Z,10.71
2018-09-26T08:01:40.815Z,10.72
2018-09-26T08:02:40.803Z,10.76
2018-09-26T08:03:40.791Z,10.72
2018-09-26T08:04:40.782Z,10.82
2018-09-26T08:05:40.774Z,10.78
2018-09-26T08:06:41.643Z,10.82
2018-09-26T08:07:40.760Z,10.94
2018-09-26T08:08:40.755Z,11.02
2018-09-26T08:09:40.752Z,11.07
2018-09-26T08:10:40.740Z,11.12
2018-09-26T08:11:41.650Z,11.11
2018-09-26T08:12:40.743Z,11.18
2018-09-26T08:13:40.720Z,11.27
2018-09-26T08:14:40.718Z,11.29
2018-09-26T08:15:40.708Z,11.40
2018-09-26T08:16:40.703Z,11.41
2018-09-26T08:17:40.697Z,11.40
2018-09-26T08:18:40.744Z,11.54
2018-09-26T08:19:40.686Z,11.55
2018-09-26T08:20:40.679Z,11.65
2018-09-26T08:21:40.674Z,11.65
2018-09-26T08:22:40.721Z,11.63
2018-09-26T08:23:40.750Z,11.72
2018-09-26T08:24:40.651Z,11.78
2018-09-26T08:25:40.645Z,11.68
2018-09-26T08:26:40.640Z,11.78
2018-09-26T08:27:40.646Z,11.80
2018-09-26T08:28:40.643Z,11.77
2018-09-26T08:29:40.662Z,11.87
2018-09-26T08:30:40.627Z,11.91
2018-09-26T08:31:40.609Z,11.94
2018-09-26T08:32:40.602Z,11.94
2018-09-26T08:33:40.595Z,11.83
2018-09-26T08:34:40.592Z,11.95
2018-09-26T08:35:40.594Z,12.07
2018-09-26T08:36:40.593Z,12.07
2018-09-26T08:37:40.570Z,12.13
2018-09-26T08:38:40.574Z,12.17
2018-09-26T08:39:40.562Z,12.25
2018-09-26T08:40:40.555Z,12.27
2018-09-26T08:41:40.553Z,12.32
2018-09-26T08:42:40.545Z,12.29
2018-09-26T08:43:40.537Z,12.31
2018-09-26T08:44:40.544Z,12.43
2018-09-26T08:45:41.161Z,12.54
2018-09-26T08:46:40.523Z,12.55
2018-09-26T08:47:40.519Z,12.72
2018-09-26T08:48:40.509Z,12.80
2018-09-26T08:49:40.510Z,12.85
2018-09-26T08:50:40.502Z,13.05
2018-09-26T08:51:40.494Z,13.28
2018-09-26T08:52:40.502Z,13.23
2018-09-26T08:53:40.523Z,13.52
2018-09-26T08:54:40.481Z,13.57
2018-09-26T08:55:40.474Z,13.79
2018-09-26T08:56:40.470Z,13.93
2018-09-26T08:57:40.467Z,14.11
2018-09-26T08:58:40.457Z,14.23
2018-09-26T08:59:40.566Z,14.26
2018-09-26T09:00:40.454Z,14.25
2018-09-26T09:01:40.447Z,14.26
2018-09-26T09:02:40.443Z,14.29
2018-09-26T09:03:40.442Z,14.28
2018-09-26T09:04:40.440Z,14.33
2018-09-26T09:05:40.433Z,14.53
2018-09-26T09:06:40.433Z,14.50
2018-09-26T09:07:40.437Z,14.53
2018-09-26T09:08:40.421Z,14.58
2018-09-26T09:09:40.423Z,14.69
2018-09-26T09:10:40.421Z,14.68
2018-09-26T09:11:40.469Z,14.79
2018-09-26T09:12:40.418Z,14.85
2018-09-26T09:13:40.412Z,14.94
2018-09-26T09:14:40.503Z,15.00
2018-09-26T09:15:40.411Z,15.06
2018-09-26T09:16:40.400Z,15.15
2018-09-26T09:17:40.453Z,15.22
2018-09-26T09:18:40.399Z,15.19
2018-09-26T09:19:40.393Z,15.33
2018-09-26T09:20:40.395Z,15.25
2018-09-26T09:21:40.403Z,15.31
2018-09-26T09:22:40.405Z,15.33
2018-09-26T09:23:40.393Z,15.29
2018-09-26T09:24:40.382Z,15.33
2018-09-26T09:25:40.381Z,15.37
2018-09-26T09:26:40.385Z,15.39
2018-09-26T09:27:40.458Z,15.35
2018-09-26T09:28:40.379Z,15.42
2018-09-26T09:29:40.408Z,15.35
2018-09-26T09:30:40.369Z,15.47
2018-09-26T09:31:40.371Z,15.47
2018-09-26T09:32:40.369Z,15.39
2018-09-26T09:33:40.365Z,15.51
2018-09-26T09:34:40.383Z,15.49
2018-09-26T09:35:40.394Z,15.57
2018-09-26T09:36:40.462Z,15.72
2018-09-26T09:37:40.362Z,15.79
2018-09-26T09:38:40.363Z,15.83
2018-09-26T09:39:40.359Z,15.82
2018-09-26T09:40:40.355Z,15.84
2018-09-26T09:41:40.354Z,15.79
2018-09-26T09:42:40.348Z,15.79
2018-09-26T09:43:40.348Z,15.80
2018-09-26T09:44:40.348Z,15.80
2018-09-26T09:45:40.353Z,15.92
2018-09-26T09:46:40.368Z,15.95
2018-09-26T09:47:40.339Z,16.13
2018-09-26T09:48:40.344Z,16.09
2018-09-26T09:49:40.342Z,16.09
2018-09-26T09:50:40.360Z,16.09
2018-09-26T09:51:40.399Z,16.04
2018-09-26T09:52:40.339Z,16.02
2018-09-26T09:53:40.332Z,16.05
2018-09-26T09:54:40.329Z,16.05
2018-09-26T09:55:40.329Z,16.08
2018-09-26T09:56:40.336Z,16.09
2018-09-26T09:57:40.333Z,15.98
2018-09-26T09:58:40.334Z,15.90
2018-09-26T09:59:40.339Z,15.92
2018-09-26T10:00:41.198Z,15.90
2018-09-26T10:01:40.319Z,16.02
2018-09-26T10:02:40.389Z,16.09
2018-09-26T10:03:40.321Z,16.08
2018-09-26T10:04:40.320Z,16.23
2018-09-26T10:05:40.318Z,16.42
2018-09-26T10:06:40.316Z,16.49
2018-09-26T10:07:40.317Z,16.66
2018-09-26T10:08:40.325Z,16.71
2018-09-26T10:09:40.321Z,16.83
2018-09-26T10:10:40.308Z,16.83
2018-09-26T10:11:40.309Z,16.81
2018-09-26T10:12:40.309Z,16.79
2018-09-26T10:13:40.303Z,16.86
2018-09-26T10:14:40.335Z,16.86
2018-09-26T10:15:40.305Z,16.87
2018-09-26T10:16:40.304Z,16.99
2018-09-26T10:17:40.331Z,17.04
2018-09-26T10:18:40.303Z,17.02
2018-09-26T10:19:40.318Z,17.09
2018-09-26T10:20:40.305Z,16.99
2018-09-26T10:21:40.307Z,17.09
2018-09-26T10:22:40.300Z,17.19
2018-09-26T10:23:40.301Z,17.27
2018-09-26T10:24:40.298Z,17.42
2018-09-26T10:25:40.315Z,17.42
2018-09-26T10:26:40.293Z,17.41
2018-09-26T10:27:40.296Z,17.27
2018-09-26T10:28:40.297Z,17.23
2018-09-26T10:29:40.309Z,17.11
2018-09-26T10:30:40.289Z,17.01
2018-09-26T10:31:40.291Z,16.99
2018-09-26T10:32:40.293Z,17.02
2018-09-26T10:33:40.290Z,17.02
2018-09-26T10:34:40.286Z,16.96
2018-09-26T10:35:40.289Z,16.96
2018-09-26T10:36:40.302Z,17.12
2018-09-26T10:37:40.303Z,17.26
2018-09-26T10:38:40.311Z,17.33
2018-09-26T10:39:40.289Z,17.44
2018-09-26T10:40:40.282Z,17.45
2018-09-26T10:41:40.282Z,17.49
2018-09-26T10:42:40.280Z,17.56
2018-09-26T10:43:40.279Z,17.60
2018-09-26T10:44:40.284Z,17.57
2018-09-26T10:45:40.338Z,17.68
2018-09-26T10:46:40.288Z,17.76
2018-09-26T10:47:40.276Z,17.90
2018-09-26T10:48:40.278Z,17.97
2018-09-26T10:49:40.281Z,17.98
2018-09-26T10:50:40.278Z,18.03
2018-09-26T10:51:40.274Z,18.00
2018-09-26T10:52:40.282Z,18.05
2018-09-26T10:53:40.278Z,18.16
2018-09-26T10:54:40.278Z,18.25
2018-09-26T10:55:40.274Z,18.31
2018-09-26T10:56:40.323Z,18.40
2018-09-26T10:57:40.279Z,18.38
2018-09-26T10:58:40.277Z,18.44
2018-09-26T10:59:40.279Z,18.59
2018-09-26T11:00:40.300Z,18.50
2018-09-26T11:01:40.284Z,18.40
2018-09-26T11:02:40.276Z,18.29
2018-09-26T11:03:40.275Z,18.40
2018-09-26T11:04:40.277Z,18.41
2018-09-26T11:05:40.281Z,18.40
2018-09-26T11:06:40.282Z,18.22
2018-09-26T11:07:40.286Z,18.31
2018-09-26T11:08:40.292Z,18.29
2018-09-26T11:09:40.300Z,18.37
2018-09-26T11:10:40.280Z,18.55
2018-09-26T11:11:40.284Z,18.65
2018-09-26T11:12:40.340Z,18.75
2018-09-26T11:13:41.186Z,18.81
2018-09-26T11:14:40.284Z,18.84
2018-09-26T11:15:40.290Z,18.90
2018-09-26T11:16:40.290Z,18.75
2018-09-26T11:17:40.292Z,18.71
2018-09-26T11:18:41.272Z,18.80
2018-09-26T11:19:40.289Z,18.71
2018-09-26T11:20:40.298Z,18.68
2018-09-26T11:21:40.297Z,18.80
2018-09-26T11:22:40.301Z,18.81
2018-09-26T11:23:40.299Z,18.89
2018-09-26T11:24:40.302Z,18.84
2018-09-26T11:25:40.306Z,18.74
2018-09-26T11:26:40.384Z,18.74
2018-09-26T11:27:40.303Z,18.92
2018-09-26T11:28:40.331Z,18.93
2018-09-26T11:29:40.308Z,19.12
2018-09-26T11:30:40.309Z,19.26
2018-09-26T11:31:40.309Z,19.16
2018-09-26T11:32:40.317Z,19.33
2018-09-26T11:33:40.349Z,19.30
2018-09-26T11:34:40.321Z,19.41
2018-09-26T11:35:40.320Z,19.54
2018-09-26T11:36:40.320Z,19.63
2018-09-26T11:37:40.321Z,19.56
2018-09-26T11:38:40.326Z,19.64
2018-09-26T11:39:40.326Z,19.71
2018-09-26T11:40:40.328Z,19.96
2018-09-26T11:41:40.330Z,20.13
2018-09-26T11:42:40.336Z,20.09
2018-09-26T11:43:40.339Z,20.02
2018-09-26T11:44:40.339Z,19.84
2018-09-26T11:45:40.338Z,19.82
2018-09-26T11:46:40.343Z,19.70
2018-09-26T11:47:40.355Z,19.76
2018-09-26T11:48:40.350Z,19.81
2018-09-26T11:49:40.358Z,19.92
2018-09-26T11:50:40.404Z,20.07
2018-09-26T11:51:40.360Z,20.19
2018-09-26T11:52:40.421Z,20.18
2018-09-26T11:53:40.383Z,20.13
2018-09-26T11:54:41.284Z,20.21
2018-09-26T11:55:40.366Z,20.22
2018-09-26T11:56:40.426Z,20.51
2018-09-26T11:57:40.377Z,20.52
2018-09-26T11:58:40.382Z,20.72
2018-09-26T11:59:41.288Z,20.80
2018-09-26T12:00:40.381Z,20.77
2018-09-26T12:01:40.391Z,20.75
2018-09-26T12:02:40.434Z,20.77
2018-09-26T12:03:40.396Z,20.67
2018-09-26T12:04:40.396Z,20.66
2018-09-26T12:05:40.395Z,20.67
2018-09-26T12:06:40.397Z,20.60
2018-09-26T12:07:40.402Z,20.39
2018-09-26T12:08:40.407Z,20.37
2018-09-26T12:09:40.428Z,20.47
2018-09-26T12:10:40.434Z,20.65
2018-09-26T12:11:40.432Z,20.65
2018-09-26T12:12:40.416Z,20.50
2018-09-26T12:13:40.431Z,20.44
2018-09-26T12:14:40.425Z,20.43
2018-09-26T12:15:40.438Z,20.52
2018-09-26T12:16:40.434Z,20.60
2018-09-26T12:17:40.471Z,20.58
2018-09-26T12:18:40.434Z,20.48
2018-09-26T12:19:40.439Z,20.41
2018-09-26T12:20:40.437Z,20.50
2018-09-26T12:21:40.477Z,20.52
2018-09-26T12:22:40.519Z,20.59
2018-09-26T12:23:40.469Z,20.63
2018-09-26T12:24:40.449Z,20.80
2018-09-26T12:25:40.453Z,20.95
2018-09-26T12:26:40.461Z,20.96
2018-09-26T12:27:40.496Z,20.81
2018-09-26T12:28:43.318Z,20.69
2018-09-26T12:29:40.487Z,20.78
2018-09-26T12:30:40.467Z,20.82
2018-09-26T12:31:40.481Z,20.82
2018-09-26T12:32:40.467Z,20.67
2018-09-26T12:33:40.474Z,20.56
2018-09-26T12:34:40.534Z,20.52
2018-09-26T12:35:40.489Z,20.63
2018-09-26T12:36:40.486Z,20.65
2018-09-26T12:37:40.480Z,20.72
2018-09-26T12:38:40.489Z,20.72
2018-09-26T12:39:40.490Z,20.69
2018-09-26T12:40:40.492Z,20.67
2018-09-26T12:41:40.496Z,20.85
2018-09-26T12:42:40.554Z,20.96
2018-09-26T12:43:40.499Z,21.06
2018-09-26T12:44:40.505Z,21.20
2018-09-26T12:45:40.505Z,21.21
2018-09-26T12:46:40.507Z,21.20
2018-09-26T12:47:40.510Z,21.15
2018-09-26T12:48:40.511Z,21.18
2018-09-26T12:49:40.512Z,21.18
2018-09-26T12:50:40.519Z,21.37
2018-09-26T12:51:40.530Z,21.52
2018-09-26T12:52:40.525Z,21.62
2018-09-26T12:53:40.602Z,21.50
2018-09-26T12:54:40.531Z,21.61
2018-09-26T12:55:40.532Z,21.54
2018-09-26T12:56:40.530Z,21.50
2018-09-26T12:57:40.535Z,21.25
2018-09-26T12:58:40.534Z,21.07
2018-09-26T12:59:40.542Z,20.92
2018-09-26T13:00:40.563Z,20.78
2018-09-26T13:01:40.551Z,20.80
2018-09-26T13:02:40.617Z,20.80
2018-09-26T13:03:40.549Z,21.09
2018-09-26T13:04:40.553Z,21.18
2018-09-26T13:05:40.565Z,21.09
2018-09-26T13:06:40.581Z,21.03
2018-09-26T13:07:40.560Z,21.07